createdAt,value
2023-04-04T00:00:29.628Z,97895.63
2023-04-04T00:02:56.153Z,97902.25
2023-04-04T00:05:22.878Z,97905.66
2023-04-04T00:07:49.345Z,97897.59
2023-04-04T00:10:16.380Z,97894.94
2023-04-04T00:12:43.258Z,97900.66
2023-04-04T00:15:10.082Z,97900.19
2023-04-04T00:17:36.653Z,97892.19
2023-04-04T00:20:04.398Z,97908.31
2023-04-04T00:22:31.483Z,97905.09
2023-04-04T00:24:59.022Z,97900.81
2023-04-04T00:27:25.781Z,97895.88
2023-04-04T00:29:52.485Z,97903.00
2023-04-04T00:32:19.045Z,97899.03
2023-04-04T00:34:45.652Z,97896.16
2023-04-04T00:37:12.976Z,97900.47
2023-04-04T00:39:39.653Z,97887.25
2023-04-04T00:42:06.607Z,97901.69
2023-04-04T00:44:35.661Z,97896.19
2023-04-04T00:47:02.997Z,97900.38
2023-04-04T00:49:29.428Z,97896.94
2023-04-04T00:51:55.911Z,97894.75
2023-04-04T00:54:22.563Z,97889.75
2023-04-04T00:56:55.037Z,97887.06
2023-04-04T00:59:27.773Z,97892.88
2023-04-04T01:01:54.652Z,97890.47
2023-04-04T01:04:21.213Z,97891.03
2023-04-04T01:06:48.952Z,97893.25
2023-04-04T01:09:15.697Z,97886.50
2023-04-04T01:11:42.868Z,97884.88
2023-04-04T01:14:09.492Z,97882.31
2023-04-04T01:16:36.396Z,97885.75
2023-04-04T01:19:06.809Z,97879.19
2023-04-04T01:21:34.714Z,97871.13
2023-04-04T01:24:02.965Z,97881.84
2023-04-04T01:26:37.467Z,97885.91
2023-04-04T01:29:04.579Z,97876.81
2023-04-04T01:31:39.267Z,97879.28
2023-04-04T01:34:13.122Z,97875.69
2023-04-04T01:36:43.493Z,97873.78
2023-04-04T01:39:15.622Z,97876.81
2023-04-04T01:41:42.291Z,97872.84
2023-04-04T01:44:09.485Z,97867.72
2023-04-04T01:46:36.291Z,97872.75
2023-04-04T01:49:02.921Z,97879.75
2023-04-04T01:51:33.753Z,97868.63
2023-04-04T01:54:00.495Z,97869.78
2023-04-04T01:56:27.959Z,97861.72
2023-04-04T01:58:54.447Z,97856.94
2023-04-04T02:01:21.288Z,97859.34
2023-04-04T02:03:48.518Z,97855.53
2023-04-04T02:06:15.009Z,97861.41
2023-04-04T02:08:42.121Z,97856.09
2023-04-04T02:11:09.667Z,97863.09
2023-04-04T02:13:41.192Z,97861.59
2023-04-04T02:16:08.586Z,97860.25
2023-04-04T02:18:36.132Z,97855.78
2023-04-04T02:21:02.776Z,97857.88
2023-04-04T02:23:29.267Z,97865.28
2023-04-04T02:25:56.025Z,97860.75
2023-04-04T02:28:22.739Z,97848.56
2023-04-04T02:30:49.206Z,97845.78
2023-04-04T02:33:15.783Z,97852.97
2023-04-04T02:35:42.452Z,97843.69
2023-04-04T02:38:08.988Z,97841.19
2023-04-04T02:40:42.290Z,97840.47
2023-04-04T02:43:09.144Z,97842.09
2023-04-04T02:45:36.308Z,97834.41
2023-04-04T02:48:11.553Z,97831.00
2023-04-04T02:50:46.059Z,97822.84
2023-04-04T02:53:13.663Z,97827.22
2023-04-04T02:55:40.496Z,97828.50
2023-04-04T02:58:07.115Z,97820.75
2023-04-04T03:00:33.631Z,97808.44
2023-04-04T03:03:00.637Z,97805.41
2023-04-04T03:05:33.557Z,97809.97
2023-04-04T03:08:01.033Z,97803.53
2023-04-04T03:10:31.676Z,97810.84
2023-04-04T03:12:58.541Z,97795.78
2023-04-04T03:15:27.611Z,97794.84
2023-04-04T03:17:54.330Z,97795.81
2023-04-04T03:20:24.745Z,97793.69
2023-04-04T03:22:51.336Z,97776.28
2023-04-04T03:25:17.908Z,97789.16
2023-04-04T03:27:44.438Z,97780.84
2023-04-04T03:30:18.618Z,97782.81
2023-04-04T03:32:45.287Z,97792.94
2023-04-04T03:35:11.880Z,97784.81
2023-04-04T03:37:40.467Z,97779.50
2023-04-04T03:40:07.433Z,97780.53
2023-04-04T03:42:34.977Z,97774.56
2023-04-04T03:45:07.475Z,97778.66
2023-04-04T03:47:35.551Z,97779.50
2023-04-04T03:50:02.514Z,97770.94
2023-04-04T03:52:29.643Z,97778.06
2023-04-04T03:54:56.118Z,97773.97
2023-04-04T03:57:22.622Z,97779.19
2023-04-04T03:59:49.112Z,97769.41
2023-04-04T04:02:16.023Z,97768.28
2023-04-04T04:04:42.617Z,97773.03
2023-04-04T04:07:09.158Z,97771.69
2023-04-04T04:09:36.664Z,97772.47
2023-04-04T04:12:03.189Z,97773.59
2023-04-04T04:14:29.690Z,97771.34
2023-04-04T04:16:56.805Z,97767.72
2023-04-04T04:19:23.291Z,97774.72
2023-04-04T04:21:49.835Z,97771.91
2023-04-04T04:24:16.946Z,97777.94
2023-04-04T04:26:43.571Z,97774.94
2023-04-04T04:29:11.529Z,97771.59
2023-04-04T04:31:38.608Z,97776.59
2023-04-04T04:34:06.675Z,97780.56
2023-04-04T04:36:33.351Z,97776.81
2023-04-04T04:39:12.244Z,97779.13
2023-04-04T04:41:43.693Z,97786.69
2023-04-04T04:44:11.251Z,97776.44
2023-04-04T04:46:38.031Z,97779.56
2023-04-04T04:49:11.340Z,97785.75
2023-04-04T04:51:38.835Z,97784.59
2023-04-04T04:54:05.700Z,97782.53
2023-04-04T04:56:32.686Z,97788.19
2023-04-04T04:59:07.523Z,97800.34
2023-04-04T05:01:35.262Z,97794.28
2023-04-04T05:04:02.124Z,97806.88
2023-04-04T05:06:40.807Z,97797.72
2023-04-04T05:09:09.671Z,97795.03
2023-04-04T05:11:37.716Z,97804.91
2023-04-04T05:14:06.757Z,97807.00
2023-04-04T05:16:38.347Z,97805.50
2023-04-04T05:19:06.475Z,97804.53
2023-04-04T05:21:39.504Z,97809.09
2023-04-04T05:24:10.268Z,97814.59
2023-04-04T05:26:38.740Z,97814.22
2023-04-04T05:29:05.579Z,97818.59
2023-04-04T05:31:33.251Z,97814.59
2023-04-04T05:34:08.427Z,97821.41
2023-04-04T05:36:36.584Z,97814.91
2023-04-04T05:39:05.824Z,97820.38
2023-04-04T05:41:36.476Z,97811.69
2023-04-04T05:44:10.708Z,97820.84
2023-04-04T05:46:37.623Z,97825.97
2023-04-04T05:49:04.399Z,97823.59
2023-04-04T05:51:32.927Z,97832.16
2023-04-04T05:54:08.689Z,97825.03
2023-04-04T05:56:36.886Z,97823.34
2023-04-04T05:59:07.609Z,97824.00
2023-04-04T06:01:40.619Z,97833.25
2023-04-04T06:04:12.136Z,97829.28
2023-04-04T06:06:39.531Z,97829.91
2023-04-04T06:09:08.656Z,97832.66
2023-04-04T06:11:35.346Z,97820.22
2023-04-04T06:14:05.871Z,97819.50
2023-04-04T06:16:32.778Z,97827.81
2023-04-04T06:18:59.256Z,97821.38
2023-04-04T06:21:26.583Z,97820.28
2023-04-04T06:23:53.375Z,97822.50
2023-04-04T06:26:20.533Z,97823.44
2023-04-04T06:28:50.819Z,97815.75
2023-04-04T06:31:27.870Z,97816.44
2023-04-04T06:33:58.511Z,97810.78
2023-04-04T06:36:25.056Z,97817.28
2023-04-04T06:38:52.172Z,97825.38
2023-04-04T06:41:21.244Z,97823.72
2023-04-04T06:43:49.992Z,97813.78
2023-04-04T06:46:18.219Z,97819.69
2023-04-04T06:48:45.095Z,97814.47
2023-04-04T06:51:12.110Z,97816.53
2023-04-04T06:53:45.231Z,97810.53
2023-04-04T06:56:12.065Z,97819.84
2023-04-04T06:58:39.553Z,97816.69
2023-04-04T07:01:06.202Z,97812.56
2023-04-04T07:03:32.792Z,97823.63
2023-04-04T07:06:02.052Z,97816.69
2023-04-04T07:08:34.423Z,97817.06
2023-04-04T07:11:02.611Z,97812.72
2023-04-04T07:13:29.533Z,97813.81
2023-04-04T07:15:56.211Z,97808.53
2023-04-04T07:18:22.690Z,97810.78
2023-04-04T07:20:49.410Z,97810.44
2023-04-04T07:23:15.912Z,97812.84
2023-04-04T07:25:43.943Z,97813.56
2023-04-04T07:28:13.232Z,97815.03
2023-04-04T07:30:40.369Z,97816.25
2023-04-04T07:33:07.183Z,97804.84
2023-04-04T07:35:34.469Z,97801.16
2023-04-04T07:38:00.956Z,97812.06
2023-04-04T07:40:27.406Z,97807.41
2023-04-04T07:42:54.635Z,97810.78
2023-04-04T07:45:22.167Z,97814.31
2023-04-04T07:47:48.730Z,97805.72
2023-04-04T07:50:16.091Z,97808.41
2023-04-04T07:52:42.890Z,97814.59
2023-04-04T07:55:09.492Z,97817.63
2023-04-04T07:57:39.697Z,97812.28
2023-04-04T08:00:06.975Z,97817.88
2023-04-04T08:02:40.236Z,97812.72
2023-04-04T08:05:07.509Z,97811.41
2023-04-04T08:07:34.004Z,97805.22
2023-04-04T08:10:00.460Z,97798.72
2023-04-04T08:12:27.090Z,97801.25
2023-04-04T08:14:53.792Z,97798.31
2023-04-04T08:17:20.993Z,97800.09
2023-04-04T08:19:47.475Z,97803.53
2023-04-04T08:22:14.416Z,97796.56
2023-04-04T08:24:40.826Z,97798.63
2023-04-04T08:27:07.368Z,97791.03
2023-04-04T08:29:34.263Z,97781.72
2023-04-04T08:32:01.171Z,97797.66
2023-04-04T08:34:28.559Z,97795.34
2023-04-04T08:36:55.122Z,97791.06
2023-04-04T08:39:21.556Z,97791.34
2023-04-04T08:41:54.422Z,97776.41
2023-04-04T08:44:22.855Z,97767.03
2023-04-04T08:46:50.174Z,97768.47
2023-04-04T08:49:18.827Z,97767.88
2023-04-04T08:51:46.566Z,97773.28
2023-04-04T08:54:13.104Z,97770.91
2023-04-04T08:56:39.621Z,97756.19
2023-04-04T08:59:06.352Z,97767.16
2023-04-04T09:01:33.310Z,97764.47
2023-04-04T09:04:00.613Z,97761.16
2023-04-04T09:06:28.056Z,97761.06
2023-04-04T09:08:54.823Z,97754.22
2023-04-04T09:11:23.511Z,97746.53
2023-04-04T09:13:50.887Z,97764.88
2023-04-04T09:16:17.535Z,97759.28
2023-04-04T09:18:44.125Z,97751.25
2023-04-04T09:21:11.915Z,97749.06
2023-04-04T09:23:38.771Z,97747.88
2023-04-04T09:26:05.511Z,97739.47
2023-04-04T09:28:32.590Z,97738.97
2023-04-04T09:31:03.190Z,97748.09
2023-04-04T09:33:31.128Z,97738.53
2023-04-04T09:35:58.915Z,97730.66
2023-04-04T09:38:26.437Z,97743.28
2023-04-04T09:40:54.487Z,97735.84
2023-04-04T09:43:22.434Z,97732.22
2023-04-04T09:45:49.879Z,97726.06
2023-04-04T09:48:46.271Z,97710.03
2023-04-04T09:51:12.974Z,97721.78
2023-04-04T09:53:42.091Z,97727.94
2023-04-04T09:56:09.267Z,97718.16
2023-04-04T09:58:36.503Z,97705.31
2023-04-04T10:01:04.459Z,97709.22
2023-04-04T10:03:31.149Z,97708.69
2023-04-04T10:06:03.765Z,97717.03
2023-04-04T10:08:32.151Z,97707.59
2023-04-04T10:11:09.833Z,97699.31
2023-04-04T10:13:41.166Z,97700.94
2023-04-04T10:16:08.823Z,97696.53
2023-04-04T10:18:36.084Z,97694.56
2023-04-04T10:21:14.569Z,97693.75
2023-04-04T10:23:42.819Z,97692.75
2023-04-04T10:26:09.979Z,97693.28
2023-04-04T10:28:37.022Z,97687.25
2023-04-04T10:31:16.290Z,97681.28
2023-04-04T10:33:48.667Z,97683.09
2023-04-04T10:36:16.897Z,97679.53
2023-04-04T10:38:44.972Z,97674.66
2023-04-04T10:41:13.804Z,97668.81
2023-04-04T10:43:41.980Z,97667.63
2023-04-04T10:46:11.740Z,97666.66
2023-04-04T10:48:38.777Z,97665.44
2023-04-04T10:51:06.591Z,97665.84
2023-04-04T10:53:34.001Z,97656.25
2023-04-04T10:56:01.669Z,97663.97
2023-04-04T10:58:28.536Z,97655.44
2023-04-04T11:00:56.132Z,97658.94
2023-04-04T11:03:22.749Z,97660.97
2023-04-04T11:05:51.484Z,97643.44
2023-04-04T11:08:22.075Z,97651.03
2023-04-04T11:10:49.177Z,97650.63
2023-04-04T11:13:17.075Z,97648.41
2023-04-04T11:16:00.324Z,97651.03
2023-04-04T11:18:45.856Z,97643.75
2023-04-04T11:21:18.427Z,97628.69
2023-04-04T11:23:45.308Z,97623.69
2023-04-04T11:26:12.093Z,97627.66
2023-04-04T11:28:38.872Z,97613.56
2023-04-04T11:31:14.523Z,97621.13
2023-04-04T11:34:00.165Z,97620.50
2023-04-04T11:36:36.179Z,97616.53
2023-04-04T11:39:11.817Z,97623.31
2023-04-04T11:41:45.106Z,97619.19
2023-04-04T11:44:11.813Z,97616.09
2023-04-04T11:46:38.361Z,97603.44
2023-04-04T11:49:05.951Z,97599.13
2023-04-04T11:51:32.741Z,97597.09
2023-04-04T11:53:59.696Z,97603.88
2023-04-04T11:56:26.159Z,97587.25
2023-04-04T11:59:01.610Z,97602.75
2023-04-04T12:01:31.717Z,97601.19
2023-04-04T12:03:59.524Z,97587.00
2023-04-04T12:06:27.168Z,97589.13
2023-04-04T12:08:53.689Z,97587.59
2023-04-04T12:11:21.542Z,97581.28
2023-04-04T12:13:50.592Z,97573.47
2023-04-04T12:16:18.902Z,97578.94
2023-04-04T12:18:46.069Z,97578.34
2023-04-04T12:21:12.664Z,97587.25
2023-04-04T12:23:39.077Z,97585.97
2023-04-04T12:26:06.009Z,97572.84
2023-04-04T12:28:34.199Z,97574.38
2023-04-04T12:31:05.482Z,97576.97
2023-04-04T12:33:35.349Z,97574.44
2023-04-04T12:36:05.494Z,97566.94
2023-04-04T12:38:32.360Z,97569.53
2023-04-04T12:40:58.954Z,97564.75
2023-04-04T12:43:29.790Z,97557.34
2023-04-04T12:45:57.552Z,97559.00
2023-04-04T12:48:28.182Z,97551.41
2023-04-04T12:50:56.695Z,97555.06
2023-04-04T12:55:54.567Z,97542.78
2023-04-04T12:58:22.755Z,97550.00
2023-04-04T13:00:51.162Z,97545.72
2023-04-04T13:03:20.182Z,97551.38
2023-04-04T13:05:47.419Z,97545.84
2023-04-04T13:08:13.892Z,97548.28
2023-04-04T13:11:03.835Z,97542.16
2023-04-04T13:13:40.968Z,97544.47
2023-04-04T13:16:08.434Z,97540.91
2023-04-04T13:18:39.239Z,97546.50
2023-04-04T13:21:07.394Z,97539.16
2023-04-04T13:23:35.107Z,97536.22
2023-04-04T13:26:01.812Z,97539.78
2023-04-04T13:28:28.306Z,97545.41
2023-04-04T13:30:54.892Z,97540.34
2023-04-04T13:33:22.361Z,97541.38
2023-04-04T13:35:49.749Z,97546.72
2023-04-04T13:38:16.572Z,97548.66
2023-04-04T13:40:43.071Z,97544.09
2023-04-04T13:43:11.569Z,97538.31
2023-04-04T13:45:38.729Z,97540.69
2023-04-04T13:48:05.489Z,97543.13
2023-04-04T13:50:32.893Z,97539.06
2023-04-04T13:52:59.386Z,97541.13
2023-04-04T13:55:25.972Z,97542.38
2023-04-04T13:57:52.549Z,97543.84
2023-04-04T14:00:19.101Z,97533.63
2023-04-04T14:02:45.644Z,97534.75
2023-04-04T14:05:12.460Z,97536.97
2023-04-04T14:07:38.953Z,97537.19
2023-04-04T14:10:05.804Z,97523.91
2023-04-04T14:12:32.308Z,97519.94
2023-04-04T14:14:58.736Z,97533.63
2023-04-04T14:17:25.235Z,97531.69
2023-04-04T14:19:51.696Z,97537.06
2023-04-04T14:22:18.181Z,97535.22
2023-04-04T14:24:44.649Z,97538.31
2023-04-04T14:27:11.234Z,97531.16
2023-04-04T14:29:37.918Z,97544.84
2023-04-04T14:32:04.431Z,97535.91
2023-04-04T14:34:30.983Z,97537.03
2023-04-04T14:36:57.544Z,97542.88
2023-04-04T14:39:24.043Z,97539.31
2023-04-04T14:41:50.550Z,97538.59
2023-04-04T14:44:17.045Z,97545.84
2023-04-04T14:46:44.710Z,97548.72
2023-04-04T14:49:11.209Z,97551.91
2023-04-04T14:51:37.758Z,97552.44
2023-04-04T14:54:04.430Z,97555.00
2023-04-04T14:56:31.361Z,97545.16
2023-04-04T14:58:59.943Z,97546.50
2023-04-04T15:01:27.263Z,97540.91
2023-04-04T15:03:55.570Z,97546.25
2023-04-04T15:06:22.301Z,97544.91
2023-04-04T15:08:49.268Z,97541.59
2023-04-04T15:11:16.715Z,97545.03
2023-04-04T15:13:43.800Z,97553.75
2023-04-04T15:16:10.361Z,97555.88
2023-04-04T15:18:38.191Z,97557.84
2023-04-04T15:21:04.974Z,97556.63
2023-04-04T15:23:31.511Z,97558.69
2023-04-04T15:25:57.995Z,97566.09
2023-04-04T15:28:24.497Z,97558.00
2023-04-04T15:30:51.380Z,97556.94
2023-04-04T15:33:17.893Z,97563.56
2023-04-04T15:35:44.440Z,97565.41
2023-04-04T15:38:11.037Z,97572.00
2023-04-04T15:40:37.512Z,97570.81
2023-04-04T15:43:04.008Z,97564.84
2023-04-04T15:45:30.604Z,97566.19
2023-04-04T15:47:57.050Z,97579.28
2023-04-04T15:50:23.575Z,97572.34
2023-04-04T15:52:50.069Z,97576.06
2023-04-04T15:55:17.094Z,97577.53
2023-04-04T15:57:44.888Z,97577.59
2023-04-04T16:00:12.143Z,97585.75
2023-04-04T16:02:38.754Z,97590.50
2023-04-04T16:05:06.150Z,97591.50
2023-04-04T16:07:32.643Z,97593.69
2023-04-04T16:09:59.124Z,97593.13
2023-04-04T16:12:26.153Z,97597.81
2023-04-04T16:14:52.608Z,97603.06
2023-04-04T16:17:19.068Z,97601.38
2023-04-04T16:19:46.296Z,97611.88
2023-04-04T16:22:15.117Z,97606.25
2023-04-04T16:24:41.645Z,97622.72
2023-04-04T16:27:08.064Z,97620.38
2023-04-04T16:29:34.701Z,97621.19
2023-04-04T16:32:01.299Z,97622.47
2023-04-04T16:34:27.794Z,97623.78
2023-04-04T16:36:54.277Z,97626.81
2023-04-04T16:39:20.789Z,97623.53
2023-04-04T16:41:47.223Z,97639.69
2023-04-04T16:44:15.306Z,97633.06
2023-04-04T16:46:41.814Z,97635.75
2023-04-04T16:49:08.611Z,97634.44
2023-04-04T16:51:35.173Z,97640.06
2023-04-04T16:54:01.645Z,97643.63
2023-04-04T16:56:28.081Z,97637.69
2023-04-04T16:58:54.636Z,97642.97
2023-04-04T17:01:22.653Z,97643.34
2023-04-04T17:03:49.521Z,97644.00
2023-04-04T17:06:16.056Z,97644.31
2023-04-04T17:08:43.206Z,97651.06
2023-04-04T17:11:09.706Z,97653.72
2023-04-04T17:13:36.205Z,97651.63
2023-04-04T17:16:02.785Z,97654.09
2023-04-04T17:18:29.479Z,97658.09
2023-04-04T17:20:56.020Z,97656.16
2023-04-04T17:23:22.454Z,97657.13
2023-04-04T17:25:48.915Z,97659.50
2023-04-04T17:28:15.519Z,97660.19
2023-04-04T17:30:42.600Z,97669.00
2023-04-04T17:33:09.167Z,97665.22
2023-04-04T17:35:36.040Z,97674.19
2023-04-04T17:38:02.553Z,97670.47
2023-04-04T17:40:28.993Z,97675.81
2023-04-04T17:42:55.486Z,97679.81
2023-04-04T17:45:22.594Z,97683.22
2023-04-04T17:47:49.095Z,97688.38
2023-04-04T17:50:15.924Z,97689.88
2023-04-04T17:52:42.430Z,97696.31
2023-04-04T17:55:09.169Z,97693.75
2023-04-04T17:57:36.004Z,97706.66
2023-04-04T18:00:03.185Z,97703.50
2023-04-04T18:02:34.577Z,97717.38
2023-04-04T18:05:01.126Z,97708.13
2023-04-04T18:07:27.709Z,97711.78
2023-04-04T18:09:54.136Z,97713.47
2023-04-04T18:12:20.655Z,97718.59
2023-04-04T18:14:47.200Z,97728.06
2023-04-04T18:17:14.011Z,97734.63
2023-04-04T18:19:41.470Z,97737.03
2023-04-04T18:22:08.327Z,97737.78
2023-04-04T18:24:34.833Z,97739.22
2023-04-04T18:27:01.473Z,97746.50
2023-04-04T18:29:30.742Z,97743.81
2023-04-04T18:31:59.735Z,97747.94
2023-04-04T18:34:26.297Z,97752.31
2023-04-04T18:36:52.790Z,97755.94
2023-04-04T18:39:19.325Z,97753.03
2023-04-04T18:41:46.478Z,97755.66
2023-04-04T18:44:13.210Z,97758.81
2023-04-04T18:46:40.543Z,97763.88
2023-04-04T18:49:07.215Z,97766.66
2023-04-04T18:51:33.926Z,97768.88
2023-04-04T18:54:00.600Z,97768.44
2023-04-04T18:56:27.376Z,97770.88
2023-04-04T18:58:53.905Z,97775.69
2023-04-04T19:01:20.497Z,97776.34
2023-04-04T19:03:47.599Z,97778.22
2023-04-04T19:06:14.473Z,97777.97
2023-04-04T19:08:42.371Z,97780.22
2023-04-04T19:11:09.048Z,97786.66
2023-04-04T19:13:36.013Z,97787.69
2023-04-04T19:16:02.549Z,97788.84
2023-04-04T19:18:29.123Z,97790.41
2023-04-04T19:20:55.606Z,97782.16
2023-04-04T19:23:22.045Z,97792.41
2023-04-04T19:25:48.674Z,97793.72
2023-04-04T19:28:15.157Z,97796.81
2023-04-04T19:30:44.750Z,97798.41
2023-04-04T19:33:12.037Z,97801.38
2023-04-04T19:36:05.010Z,97797.56
2023-04-04T19:38:32.480Z,97804.06
2023-04-04T19:41:00.224Z,97811.63
2023-04-04T19:43:27.206Z,97806.72
2023-04-04T19:45:54.964Z,97801.38
2023-04-04T19:48:42.338Z,97807.38
2023-04-04T19:51:14.932Z,97811.44
2023-04-04T19:53:42.201Z,97810.78
2023-04-04T19:56:10.064Z,97811.63
2023-04-04T19:58:37.364Z,97813.00
2023-04-04T20:01:04.717Z,97818.47
2023-04-04T20:03:38.997Z,97817.75
2023-04-04T20:06:09.582Z,97821.38
2023-04-04T20:08:48.800Z,97826.47
2023-04-04T20:11:19.229Z,97823.50
2023-04-04T20:13:46.112Z,97823.91
2023-04-04T20:16:13.540Z,97827.41
2023-04-04T20:18:41.728Z,97830.56
2023-04-04T20:21:16.015Z,97827.13
2023-04-04T20:23:47.232Z,97825.84
2023-04-04T20:26:33.647Z,97832.44
2023-04-04T20:29:00.284Z,97832.19
2023-04-04T20:31:26.742Z,97833.88
2023-04-04T20:33:53.227Z,97834.28
2023-04-04T20:36:19.666Z,97836.81
2023-04-04T20:38:46.644Z,97836.53
2023-04-04T20:41:16.372Z,97843.06
2023-04-04T20:43:44.497Z,97844.91
2023-04-04T20:46:12.340Z,97842.66
2023-04-04T20:48:40.001Z,97843.16
2023-04-04T20:51:23.837Z,97840.13
2023-04-04T20:53:51.484Z,97849.09
2023-04-04T20:56:30.360Z,97842.78
2023-04-04T20:58:58.334Z,97843.19
2023-04-04T21:01:24.774Z,97844.03
2023-04-04T21:03:51.893Z,97844.41
2023-04-04T21:06:28.635Z,97849.44
2023-04-04T21:08:55.443Z,97843.50
2023-04-04T21:11:28.845Z,97849.28
2023-04-04T21:13:55.809Z,97839.19
2023-04-04T21:16:23.979Z,97849.09
2023-04-04T21:18:54.192Z,97841.63
2023-04-04T21:21:20.925Z,97843.19
2023-04-04T21:23:54.039Z,97845.69
2023-04-04T21:26:26.690Z,97846.72
2023-04-04T21:28:53.715Z,97843.03
2023-04-04T21:31:21.824Z,97847.72
2023-04-04T21:33:49.580Z,97846.28
2023-04-04T21:36:26.224Z,97850.34
2023-04-04T21:38:59.919Z,97846.75
2023-04-04T21:41:26.660Z,97845.84
2023-04-04T21:43:54.161Z,97846.97
2023-04-04T21:46:21.891Z,97851.00
2023-04-04T21:48:48.447Z,97846.25
2023-04-04T21:51:14.889Z,97849.59
2023-04-04T21:53:41.381Z,97844.84
2023-04-04T21:56:07.867Z,97839.25
2023-04-04T21:58:34.386Z,97843.91
2023-04-04T22:01:00.919Z,97842.34
2023-04-04T22:03:27.374Z,97845.97
2023-04-04T22:05:53.937Z,97840.78
2023-04-04T22:08:20.377Z,97842.22
2023-04-04T22:10:50.112Z,97841.31
2023-04-04T22:13:19.476Z,97842.91
2023-04-04T22:15:47.060Z,97844.53
2023-04-04T22:18:17.305Z,97836.59
2023-04-04T22:20:44.886Z,97842.59
2023-04-04T22:23:12.302Z,97843.78
2023-04-04T22:25:39.256Z,97846.06
2023-04-04T22:28:08.563Z,97849.03
2023-04-04T22:30:36.018Z,97851.41
2023-04-04T22:33:05.239Z,97846.75
2023-04-04T22:35:32.558Z,97844.16
2023-04-04T22:38:03.162Z,97845.97
2023-04-04T22:40:30.775Z,97845.22
2023-04-04T22:42:57.882Z,97852.03
2023-04-04T22:45:25.091Z,97849.44
2023-04-04T22:47:51.601Z,97845.78
2023-04-04T22:50:19.566Z,97843.91
2023-04-04T22:52:46.154Z,97850.59
2023-04-04T22:55:13.698Z,97850.25
2023-04-04T22:57:40.300Z,97848.56
2023-04-04T23:00:11.333Z,97850.97
2023-04-04T23:02:38.617Z,97844.09
2023-04-04T23:05:05.963Z,97842.47
2023-04-04T23:07:32.623Z,97852.72
2023-04-04T23:09:59.105Z,97852.88
2023-04-04T23:12:26.115Z,97845.59
2023-04-04T23:14:52.678Z,97846.56
2023-04-04T23:17:19.284Z,97846.47
2023-04-04T23:19:45.755Z,97845.28
2023-04-04T23:22:12.263Z,97847.91
2023-04-04T23:24:38.734Z,97853.56
2023-04-04T23:27:05.381Z,97855.44
2023-04-04T23:29:31.858Z,97849.72
2023-04-04T23:31:58.313Z,97853.50
2023-04-04T23:34:24.807Z,97855.38
2023-04-04T23:36:51.396Z,97849.28
2023-04-04T23:39:18.306Z,97852.03
2023-04-04T23:41:44.776Z,97854.25
2023-04-04T23:44:11.472Z,97852.00
2023-04-04T23:46:38.694Z,97854.59
2023-04-04T23:49:05.303Z,97851.94
2023-04-04T23:51:38.288Z,97845.41
2023-04-04T23:54:05.641Z,97856.59
2023-04-04T23:56:32.772Z,97849.28
2023-04-04T23:58:59.880Z,97858.50
